RYR21ER LEPA-EGKK
Flight info
| Callsign | RYR21ER |
|---|---|
| Flight time | N/A |
| Altitude | 34000 |
| Route | DRAGO DCT PAPOS DCT UMURE DCT XIKEN DCT KARES DCT ARBEK DCT REBUL DCT USKAR DCT MOPAS DCT GIROM/N0455F360 DCT GONUP DCT MANAK DCT TIRAV DCT DIXAD DCT NTS DCT BAKUL DCT REN DCT UPALO DCT REVTU DCT ODREP UP88 VASUX |
| Aircraft | B738/M-SDE2E3FGHIRWXY/LB1 |
Departure
| Time | 2026-05-04 16:35 |
|---|---|
| Airport | Palma de Mallorca Airport (LEPA) |
Arrival
| Time | N/A |
|---|---|
| Airport | London Gatwick Airport (EGKK) |
| Time | Latitude | Longitude | Altitude | Speed | Heading |
|---|---|---|---|---|---|
| 2026-05-04 15:55 | 39.54832 | 2.73571 | 33 ft | 0 kts | 59° |
| 2026-05-04 16:21 | 39.54831 | 2.73570 | 29 ft | 1 kts | 59° |
| 2026-05-04 16:22 | 39.54816 | 2.73536 | 29 ft | 3 kts | 70° |
| 2026-05-04 16:22 | 39.54838 | 2.73480 | 28 ft | 2 kts | 150° |
| 2026-05-04 16:23 | 39.54843 | 2.73476 | 28 ft | 0 kts | 150° |
| 2026-05-04 16:26 | 39.54800 | 2.73508 | 29 ft | 11 kts | 150° |
| 2026-05-04 16:27 | 39.54678 | 2.73599 | 30 ft | 12 kts | 149° |
| 2026-05-04 16:28 | 39.54697 | 2.73743 | 30 ft | 13 kts | 55° |
| 2026-05-04 16:28 | 39.54896 | 2.73964 | 28 ft | 8 kts | 336° |
| 2026-05-04 16:29 | 39.55154 | 2.73868 | 28 ft | 20 kts | 327° |
| 2026-05-04 16:30 | 39.55591 | 2.73517 | 18 ft | 21 kts | 329° |
| 2026-05-04 16:31 | 39.55754 | 2.73712 | 17 ft | 17 kts | 58° |
| 2026-05-04 16:31 | 39.55927 | 2.74075 | 17 ft | 15 kts | 58° |
| 2026-05-04 16:32 | 39.56078 | 2.74396 | 16 ft | 13 kts | 58° |
| 2026-05-04 16:33 | 39.56209 | 2.74453 | 16 ft | 12 kts | 299° |
| 2026-05-04 16:33 | 39.56216 | 2.74243 | 16 ft | 14 kts | 238° |
| 2026-05-04 16:34 | 39.55622 | 2.72993 | 27 ft | 143 kts | 237° |
| 2026-05-04 16:34 | 39.55077 | 2.71790 | 491 ft | 163 kts | 239° |
| 2026-05-04 16:35 | 39.53170 | 2.67954 | 2637 ft | 188 kts | 236° |
| 2026-05-04 16:35 | 39.50819 | 2.63368 | 4269 ft | 206 kts | 236° |
| 2026-05-04 16:36 | 39.50014 | 2.61790 | 4852 ft | 209 kts | 236° |
| 2026-05-04 16:36 | 39.48416 | 2.58651 | 6155 ft | 212 kts | 236° |
| 2026-05-04 16:37 | 39.46798 | 2.55473 | 7698 ft | 211 kts | 236° |
| 2026-05-04 16:37 | 39.45984 | 2.53877 | 8481 ft | 212 kts | 236° |
| 2026-05-04 16:37 | 39.45129 | 2.50082 | 9323 ft | 255 kts | 278° |
| 2026-05-04 16:38 | 39.47494 | 2.46235 | 10290 ft | 300 kts | 319° |
| 2026-05-04 16:39 | 39.53227 | 2.41155 | 11200 ft | 353 kts | 320° |
| 2026-05-04 16:39 | 39.57021 | 2.37135 | 12706 ft | 352 kts | 310° |
| 2026-05-04 16:40 | 39.60380 | 2.32451 | 14166 ft | 359 kts | 308° |
| 2026-05-04 16:40 | 39.63796 | 2.27622 | 15606 ft | 365 kts | 308° |
| 2026-05-04 16:41 | 39.67285 | 2.22783 | 16974 ft | 372 kts | 309° |
| 2026-05-04 16:41 | 39.72710 | 2.15337 | 18895 ft | 383 kts | 309° |
| 2026-05-04 16:42 | 39.78272 | 2.07707 | 20631 ft | 392 kts | 309° |
| 2026-05-04 16:43 | 39.82055 | 2.02505 | 21726 ft | 399 kts | 309° |
| 2026-05-04 16:43 | 39.85894 | 1.97218 | 22770 ft | 406 kts | 309° |
| 2026-05-04 16:43 | 39.87847 | 1.94524 | 23300 ft | 409 kts | 308° |
| 2026-05-04 16:44 | 39.95777 | 1.83565 | 25012 ft | 421 kts | 309° |
| 2026-05-04 16:45 | 39.99816 | 1.78009 | 25794 ft | 428 kts | 312° |
| 2026-05-04 16:46 | 40.07056 | 1.73184 | 26825 ft | 449 kts | 334° |
| 2026-05-04 16:46 | 40.13935 | 1.69796 | 27641 ft | 456 kts | 334° |
| 2026-05-04 16:47 | 40.19884 | 1.66795 | 28336 ft | 460 kts | 334° |